ヘルシンキ/ヴァンター の空港の天気 - METARとTAF

ヘルシンキ・ヴァンター国際空港 ( EFHK / HEL ) - フィンランド ヴァンター
飛行場実況気象(Metar)
観測時間07/18 07:50 EEST (07/18 04:50 UTC)
風向・風速北東 5m/s
視程10km以上
天気現象
なし
気温24℃
湿度54%
気圧1015hPa
METAREFHK 180450Z 05009KT CAVOK 24/14 Q1015 NOSIG
過去の天気等 Google飛行場航空写真 Wunderground天気予報

過去48時間のMETAR

飛行場予報(TAF)
発表時間: 7/18 05:35 EEST (7/18 02:35 UTC)
予報対象時間: 18日6時 EEST ~ 19日6時 EEST
風向・風速北東 3m/s
視程10km以上
なし
18日11時 EEST ~ 18日13時 EEST に徐々に
風向・風速東 6m/s
18日22時 EEST ~ 18日24時 EEST に徐々に
風向・風速北東 1m/s
TAF EFHK 180235Z 1803/1903 04006KT CAVOK
BECMG 1808/1810 10012KT
BECMG 1819/1821 04002KT